sensor_id;sensor_type;location;lat;lon;timestamp;P1;P2;P0
82886;PMS5003;72660;51.258;-2.200;2024-03-22T00:01:24;16;13;
82886;PMS5003;72660;51.258;-2.200;2024-03-22T00:03:50;12;12;
82886;PMS5003;72660;51.258;-2.200;2024-03-22T00:06:16;10;9;
82886;PMS5003;72660;51.258;-2.200;2024-03-22T00:08:41;10;10;
82886;PMS5003;72660;51.258;-2.200;2024-03-22T00:11:06;16;13;
82886;PMS5003;72660;51.258;-2.200;2024-03-22T00:13:32;13;11;
82886;PMS5003;72660;51.258;-2.200;2024-03-22T00:15:57;11;11;
82886;PMS5003;72660;51.258;-2.200;2024-03-22T00:18:23;13;12;
82886;PMS5003;72660;51.258;-2.200;2024-03-22T00:20:48;16;16;
82886;PMS5003;72660;51.258;-2.200;2024-03-22T00:23:14;12;10;
82886;PMS5003;72660;51.258;-2.200;2024-03-22T00:25:39;12;12;
82886;PMS5003;72660;51.258;-2.200;2024-03-22T00:28:05;20;15;
82886;PMS5003;72660;51.258;-2.200;2024-03-22T00:30:30;16;15;
82886;PMS5003;72660;51.258;-2.200;2024-03-22T00:32:56;18;15;
82886;PMS5003;72660;51.258;-2.200;2024-03-22T00:35:21;17;14;
82886;PMS5003;72660;51.258;-2.200;2024-03-22T00:37:47;20;18;
82886;PMS5003;72660;51.258;-2.200;2024-03-22T00:40:12;19;18;
82886;PMS5003;72660;51.258;-2.200;2024-03-22T00:42:38;19;17;
82886;PMS5003;72660;51.258;-2.200;2024-03-22T00:45:03;16;15;
82886;PMS5003;72660;51.258;-2.200;2024-03-22T00:47:29;18;17;
82886;PMS5003;72660;51.258;-2.200;2024-03-22T00:49:54;19;19;
82886;PMS5003;72660;51.258;-2.200;2024-03-22T00:52:19;26;25;
82886;PMS5003;72660;51.258;-2.200;2024-03-22T00:54:45;20;17;
82886;PMS5003;72660;51.258;-2.200;2024-03-22T00:57:11;19;19;
82886;PMS5003;72660;51.258;-2.200;2024-03-22T00:59:36;21;20;
82886;PMS5003;72660;51.258;-2.200;2024-03-22T01:02:02;25;24;
82886;PMS5003;72660;51.258;-2.200;2024-03-22T01:04:27;29;22;
82886;PMS5003;72660;51.258;-2.200;2024-03-22T01:06:53;27;23;
82886;PMS5003;72660;51.258;-2.200;2024-03-22T01:09:18;34;29;
82886;PMS5003;72660;51.258;-2.200;2024-03-22T01:11:44;32;26;
82886;PMS5003;72660;51.258;-2.200;2024-03-22T01:14:09;38;29;
82886;PMS5003;72660;51.258;-2.200;2024-03-22T01:16:35;35;31;
82886;PMS5003;72660;51.258;-2.200;2024-03-22T01:19:00;27;25;
82886;PMS5003;72660;51.258;-2.200;2024-03-22T01:21:25;30;26;
82886;PMS5003;72660;51.258;-2.200;2024-03-22T01:23:51;34;31;
82886;PMS5003;72660;51.258;-2.200;2024-03-22T01:26:16;24;23;
82886;PMS5003;72660;51.258;-2.200;2024-03-22T01:28:42;37;33;
82886;PMS5003;72660;51.258;-2.200;2024-03-22T01:31:08;26;26;
82886;PMS5003;72660;51.258;-2.200;2024-03-22T01:33:33;32;29;
82886;PMS5003;72660;51.258;-2.200;2024-03-22T01:35:58;35;28;
82886;PMS5003;72660;51.258;-2.200;2024-03-22T01:38:23;30;26;
82886;PMS5003;72660;51.258;-2.200;2024-03-22T01:40:48;28;25;
82886;PMS5003;72660;51.258;-2.200;2024-03-22T01:43:14;35;32;
82886;PMS5003;72660;51.258;-2.200;2024-03-22T01:45:39;26;23;
82886;PMS5003;72660;51.258;-2.200;2024-03-22T01:48:05;26;23;
82886;PMS5003;72660;51.258;-2.200;2024-03-22T01:50:30;32;28;
82886;PMS5003;72660;51.258;-2.200;2024-03-22T01:52:56;22;21;
82886;PMS5003;72660;51.258;-2.200;2024-03-22T01:55:22;26;22;
82886;PMS5003;72660;51.258;-2.200;2024-03-22T01:57:47;25;23;
82886;PMS5003;72660;51.258;-2.200;2024-03-22T02:00:12;22;21;
82886;PMS5003;72660;51.258;-2.200;2024-03-22T02:02:37;25;23;
82886;PMS5003;72660;51.258;-2.200;2024-03-22T02:07:28;24;19;
82886;PMS5003;72660;51.258;-2.200;2024-03-22T02:09:54;22;20;
82886;PMS5003;72660;51.258;-2.200;2024-03-22T02:12:19;20;17;
82886;PMS5003;72660;51.258;-2.200;2024-03-22T02:14:45;19;19;
82886;PMS5003;72660;51.258;-2.200;2024-03-22T02:17:10;19;18;
82886;PMS5003;72660;51.258;-2.200;2024-03-22T02:19:35;21;18;
82886;PMS5003;72660;51.258;-2.200;2024-03-22T02:22:01;15;14;
82886;PMS5003;72660;51.258;-2.200;2024-03-22T02:24:26;19;17;
82886;PMS5003;72660;51.258;-2.200;2024-03-22T02:26:52;22;19;
82886;PMS5003;72660;51.258;-2.200;2024-03-22T02:29:17;20;19;
82886;PMS5003;72660;51.258;-2.200;2024-03-22T02:31:43;20;15;
82886;PMS5003;72660;51.258;-2.200;2024-03-22T02:34:08;18;18;
82886;PMS5003;72660;51.258;-2.200;2024-03-22T02:36:33;19;16;
82886;PMS5003;72660;51.258;-2.200;2024-03-22T02:38:58;21;20;
82886;PMS5003;72660;51.258;-2.200;2024-03-22T02:41:23;19;16;
82886;PMS5003;72660;51.258;-2.200;2024-03-22T02:43:48;23;20;
82886;PMS5003;72660;51.258;-2.200;2024-03-22T02:46:13;21;19;
82886;PMS5003;72660;51.258;-2.200;2024-03-22T02:48:39;19;13;
82886;PMS5003;72660;51.258;-2.200;2024-03-22T02:51:04;25;19;
82886;PMS5003;72660;51.258;-2.200;2024-03-22T02:53:29;18;17;
82886;PMS5003;72660;51.258;-2.200;2024-03-22T02:55:55;22;18;
82886;PMS5003;72660;51.258;-2.200;2024-03-22T02:58:20;20;17;
82886;PMS5003;72660;51.258;-2.200;2024-03-22T03:00:45;17;17;
82886;PMS5003;72660;51.258;-2.200;2024-03-22T03:03:11;16;16;
82886;PMS5003;72660;51.258;-2.200;2024-03-22T03:05:36;18;16;
82886;PMS5003;72660;51.258;-2.200;2024-03-22T03:08:02;22;20;
82886;PMS5003;72660;51.258;-2.200;2024-03-22T03:10:28;20;16;
82886;PMS5003;72660;51.258;-2.200;2024-03-22T03:12:54;20;15;
82886;PMS5003;72660;51.258;-2.200;2024-03-22T03:15:19;24;22;
82886;PMS5003;72660;51.258;-2.200;2024-03-22T03:17:44;21;18;
82886;PMS5003;72660;51.258;-2.200;2024-03-22T03:20:10;18;17;
82886;PMS5003;72660;51.258;-2.200;2024-03-22T03:22:35;19;17;
82886;PMS5003;72660;51.258;-2.200;2024-03-22T03:25:00;20;20;
82886;PMS5003;72660;51.258;-2.200;2024-03-22T03:27:26;21;16;
82886;PMS5003;72660;51.258;-2.200;2024-03-22T03:29:51;18;16;
82886;PMS5003;72660;51.258;-2.200;2024-03-22T03:32:16;23;22;
82886;PMS5003;72660;51.258;-2.200;2024-03-22T03:34:42;18;17;
82886;PMS5003;72660;51.258;-2.200;2024-03-22T03:37:06;17;17;
82886;PMS5003;72660;51.258;-2.200;2024-03-22T03:39:32;17;15;
82886;PMS5003;72660;51.258;-2.200;2024-03-22T03:41:57;18;17;
82886;PMS5003;72660;51.258;-2.200;2024-03-22T03:44:23;20;20;
82886;PMS5003;72660;51.258;-2.200;2024-03-22T03:46:49;14;14;
82886;PMS5003;72660;51.258;-2.200;2024-03-22T03:49:14;18;14;
82886;PMS5003;72660;51.258;-2.200;2024-03-22T03:51:40;20;20;
82886;PMS5003;72660;51.258;-2.200;2024-03-22T03:54:06;19;19;
82886;PMS5003;72660;51.258;-2.200;2024-03-22T03:56:31;16;13;
82886;PMS5003;72660;51.258;-2.200;2024-03-22T03:58:56;20;16;
82886;PMS5003;72660;51.258;-2.200;2024-03-22T04:01:21;18;16;
82886;PMS5003;72660;51.258;-2.200;2024-03-22T04:03:48;16;13;
82886;PMS5003;72660;51.258;-2.200;2024-03-22T04:06:12;14;14;
82886;PMS5003;72660;51.258;-2.200;2024-03-22T04:08:37;18;15;
82886;PMS5003;72660;51.258;-2.200;2024-03-22T04:11:02;15;15;
82886;PMS5003;72660;51.258;-2.200;2024-03-22T04:13:28;18;15;
82886;PMS5003;72660;51.258;-2.200;2024-03-22T04:15:54;13;11;
82886;PMS5003;72660;51.258;-2.200;2024-03-22T04:18:19;13;10;
82886;PMS5003;72660;51.258;-2.200;2024-03-22T04:23:09;17;15;
82886;PMS5003;72660;51.258;-2.200;2024-03-22T04:25:35;16;14;
82886;PMS5003;72660;51.258;-2.200;2024-03-22T04:28:00;16;15;
82886;PMS5003;72660;51.258;-2.200;2024-03-22T04:30:26;13;13;
82886;PMS5003;72660;51.258;-2.200;2024-03-22T04:32:51;16;14;
82886;PMS5003;72660;51.258;-2.200;2024-03-22T04:35:16;16;15;
82886;PMS5003;72660;51.258;-2.200;2024-03-22T04:37:41;17;15;
82886;PMS5003;72660;51.258;-2.200;2024-03-22T04:40:07;19;12;
82886;PMS5003;72660;51.258;-2.200;2024-03-22T04:42:31;17;14;
82886;PMS5003;72660;51.258;-2.200;2024-03-22T04:44:57;11;11;
82886;PMS5003;72660;51.258;-2.200;2024-03-22T04:47:23;15;12;
82886;PMS5003;72660;51.258;-2.200;2024-03-22T04:49:49;15;14;
82886;PMS5003;72660;51.258;-2.200;2024-03-22T04:52:13;18;15;
82886;PMS5003;72660;51.258;-2.200;2024-03-22T04:54:39;14;13;
82886;PMS5003;72660;51.258;-2.200;2024-03-22T04:57:04;13;11;
82886;PMS5003;72660;51.258;-2.200;2024-03-22T04:59:30;12;11;
82886;PMS5003;72660;51.258;-2.200;2024-03-22T05:01:56;10;10;
82886;PMS5003;72660;51.258;-2.200;2024-03-22T05:04:22;14;12;
82886;PMS5003;72660;51.258;-2.200;2024-03-22T05:06:48;10;9;
82886;PMS5003;72660;51.258;-2.200;2024-03-22T05:09:13;14;12;
82886;PMS5003;72660;51.258;-2.200;2024-03-22T05:11:38;13;11;
82886;PMS5003;72660;51.258;-2.200;2024-03-22T05:14:04;15;13;
82886;PMS5003;72660;51.258;-2.200;2024-03-22T05:16:30;12;11;
82886;PMS5003;72660;51.258;-2.200;2024-03-22T05:18:55;14;11;
82886;PMS5003;72660;51.258;-2.200;2024-03-22T05:21:20;10;10;
82886;PMS5003;72660;51.258;-2.200;2024-03-22T05:23:45;11;10;
82886;PMS5003;72660;51.258;-2.200;2024-03-22T05:26:11;9;9;
82886;PMS5003;72660;51.258;-2.200;2024-03-22T05:28:36;11;10;
82886;PMS5003;72660;51.258;-2.200;2024-03-22T05:31:02;12;10;
82886;PMS5003;72660;51.258;-2.200;2024-03-22T05:33:27;10;10;
82886;PMS5003;72660;51.258;-2.200;2024-03-22T05:35:52;9;8;
82886;PMS5003;72660;51.258;-2.200;2024-03-22T05:38:17;8;8;
82886;PMS5003;72660;51.258;-2.200;2024-03-22T05:40:43;12;11;
82886;PMS5003;72660;51.258;-2.200;2024-03-22T05:43:08;10;10;
82886;PMS5003;72660;51.258;-2.200;2024-03-22T05:45:34;12;10;
82886;PMS5003;72660;51.258;-2.200;2024-03-22T05:47:59;9;8;
82886;PMS5003;72660;51.258;-2.200;2024-03-22T05:50:24;8;8;
82886;PMS5003;72660;51.258;-2.200;2024-03-22T05:52:49;9;9;
82886;PMS5003;72660;51.258;-2.200;2024-03-22T05:55:15;8;8;
82886;PMS5003;72660;51.258;-2.200;2024-03-22T05:57:40;10;7;
82886;PMS5003;72660;51.258;-2.200;2024-03-22T06:00:06;6;6;
82886;PMS5003;72660;51.258;-2.200;2024-03-22T06:02:31;7;7;
82886;PMS5003;72660;51.258;-2.200;2024-03-22T06:04:56;7;7;
82886;PMS5003;72660;51.258;-2.200;2024-03-22T06:07:22;7;6;
82886;PMS5003;72660;51.258;-2.200;2024-03-22T06:09:47;6;6;
82886;PMS5003;72660;51.258;-2.200;2024-03-22T06:12:12;8;7;
82886;PMS5003;72660;51.258;-2.200;2024-03-22T06:14:37;10;7;
82886;PMS5003;72660;51.258;-2.200;2024-03-22T06:17:03;8;8;
82886;PMS5003;72660;51.258;-2.200;2024-03-22T06:19:28;10;8;
82886;PMS5003;72660;51.258;-2.200;2024-03-22T06:21:53;8;8;
82886;PMS5003;72660;51.258;-2.200;2024-03-22T06:24:18;11;8;
82886;PMS5003;72660;51.258;-2.200;2024-03-22T06:26:44;8;8;
82886;PMS5003;72660;51.258;-2.200;2024-03-22T06:29:09;11;7;
82886;PMS5003;72660;51.258;-2.200;2024-03-22T06:31:35;7;7;
82886;PMS5003;72660;51.258;-2.200;2024-03-22T06:34:00;9;7;
82886;PMS5003;72660;51.258;-2.200;2024-03-22T06:36:25;8;8;
82886;PMS5003;72660;51.258;-2.200;2024-03-22T06:38:51;6;6;
82886;PMS5003;72660;51.258;-2.200;2024-03-22T06:41:17;7;6;
82886;PMS5003;72660;51.258;-2.200;2024-03-22T06:43:42;8;8;
82886;PMS5003;72660;51.258;-2.200;2024-03-22T06:46:08;7;7;
82886;PMS5003;72660;51.258;-2.200;2024-03-22T06:48:33;6;6;
82886;PMS5003;72660;51.258;-2.200;2024-03-22T06:50:58;8;8;
82886;PMS5003;72660;51.258;-2.200;2024-03-22T06:53:24;5;5;
82886;PMS5003;72660;51.258;-2.200;2024-03-22T06:55:49;8;8;
82886;PMS5003;72660;51.258;-2.200;2024-03-22T06:58:14;6;6;
82886;PMS5003;72660;51.258;-2.200;2024-03-22T07:00:39;6;6;
82886;PMS5003;72660;51.258;-2.200;2024-03-22T07:03:05;7;6;
82886;PMS5003;72660;51.258;-2.200;2024-03-22T07:05:31;8;8;
82886;PMS5003;72660;51.258;-2.200;2024-03-22T07:07:56;7;7;
82886;PMS5003;72660;51.258;-2.200;2024-03-22T07:10:21;8;7;
82886;PMS5003;72660;51.258;-2.200;2024-03-22T07:12:47;12;9;
82886;PMS5003;72660;51.258;-2.200;2024-03-22T07:15:12;9;8;
82886;PMS5003;72660;51.258;-2.200;2024-03-22T07:17:37;8;8;
82886;PMS5003;72660;51.258;-2.200;2024-03-22T07:20:03;10;8;
82886;PMS5003;72660;51.258;-2.200;2024-03-22T07:22:28;5;5;
82886;PMS5003;72660;51.258;-2.200;2024-03-22T07:24:53;9;7;
82886;PMS5003;72660;51.258;-2.200;2024-03-22T07:27:19;11;11;
82886;PMS5003;72660;51.258;-2.200;2024-03-22T07:29:44;9;9;
82886;PMS5003;72660;51.258;-2.200;2024-03-22T07:32:09;10;7;
82886;PMS5003;72660;51.258;-2.200;2024-03-22T07:34:35;7;7;
82886;PMS5003;72660;51.258;-2.200;2024-03-22T07:37:00;8;8;
82886;PMS5003;72660;51.258;-2.200;2024-03-22T07:39:25;9;7;
82886;PMS5003;72660;51.258;-2.200;2024-03-22T07:41:50;7;7;
82886;PMS5003;72660;51.258;-2.200;2024-03-22T07:44:16;5;5;
82886;PMS5003;72660;51.258;-2.200;2024-03-22T07:46:41;6;6;
82886;PMS5003;72660;51.258;-2.200;2024-03-22T07:49:06;4;4;
82886;PMS5003;72660;51.258;-2.200;2024-03-22T07:51:32;6;6;
82886;PMS5003;72660;51.258;-2.200;2024-03-22T07:53:57;4;4;
82886;PMS5003;72660;51.258;-2.200;2024-03-22T07:56:22;6;3;
82886;PMS5003;72660;51.258;-2.200;2024-03-22T07:58:48;7;6;
82886;PMS5003;72660;51.258;-2.200;2024-03-22T08:01:13;3;3;
82886;PMS5003;72660;51.258;-2.200;2024-03-22T08:03:38;4;4;
82886;PMS5003;72660;51.258;-2.200;2024-03-22T08:06:04;3;3;
82886;PMS5003;72660;51.258;-2.200;2024-03-22T08:08:29;0;0;
82886;PMS5003;72660;51.258;-2.200;2024-03-22T08:10:54;3;2;
82886;PMS5003;72660;51.258;-2.200;2024-03-22T08:13:19;5;3;
82886;PMS5003;72660;51.258;-2.200;2024-03-22T08:15:45;1;1;
82886;PMS5003;72660;51.258;-2.200;2024-03-22T08:18:10;1;1;
82886;PMS5003;72660;51.258;-2.200;2024-03-22T08:20:35;1;1;
82886;PMS5003;72660;51.258;-2.200;2024-03-22T08:23:00;1;1;
82886;PMS5003;72660;51.258;-2.200;2024-03-22T08:25:26;3;2;
82886;PMS5003;72660;51.258;-2.200;2024-03-22T08:27:51;1;1;
82886;PMS5003;72660;51.258;-2.200;2024-03-22T08:30:16;1;1;
82886;PMS5003;72660;51.258;-2.200;2024-03-22T08:32:41;1;1;
82886;PMS5003;72660;51.258;-2.200;2024-03-22T08:35:07;0;0;
82886;PMS5003;72660;51.258;-2.200;2024-03-22T08:37:32;2;2;
82886;PMS5003;72660;51.258;-2.200;2024-03-22T08:39:58;2;2;
82886;PMS5003;72660;51.258;-2.200;2024-03-22T08:42:23;1;1;
82886;PMS5003;72660;51.258;-2.200;2024-03-22T08:44:48;1;1;
82886;PMS5003;72660;51.258;-2.200;2024-03-22T08:47:13;2;1;
82886;PMS5003;72660;51.258;-2.200;2024-03-22T08:49:39;1;1;
82886;PMS5003;72660;51.258;-2.200;2024-03-22T08:52:04;1;1;
82886;PMS5003;72660;51.258;-2.200;2024-03-22T08:54:29;0;0;
82886;PMS5003;72660;51.258;-2.200;2024-03-22T08:56:54;0;0;
82886;PMS5003;72660;51.258;-2.200;2024-03-22T08:59:20;3;2;
82886;PMS5003;72660;51.258;-2.200;2024-03-22T09:01:46;2;0;
82886;PMS5003;72660;51.258;-2.200;2024-03-22T09:04:11;1;1;
82886;PMS5003;72660;51.258;-2.200;2024-03-22T09:06:36;2;0;
82886;PMS5003;72660;51.258;-2.200;2024-03-22T09:09:01;3;3;
82886;PMS5003;72660;51.258;-2.200;2024-03-22T09:11:27;1;0;
82886;PMS5003;72660;51.258;-2.200;2024-03-22T09:13:52;1;1;
82886;PMS5003;72660;51.258;-2.200;2024-03-22T09:16:17;2;0;
82886;PMS5003;72660;51.258;-2.200;2024-03-22T09:18:43;1;1;
82886;PMS5003;72660;51.258;-2.200;2024-03-22T09:21:09;0;0;
82886;PMS5003;72660;51.258;-2.200;2024-03-22T09:23:34;2;2;
82886;PMS5003;72660;51.258;-2.200;2024-03-22T09:25:59;2;1;
82886;PMS5003;72660;51.258;-2.200;2024-03-22T09:28:25;0;0;
82886;PMS5003;72660;51.258;-2.200;2024-03-22T09:30:50;1;1;
82886;PMS5003;72660;51.258;-2.200;2024-03-22T09:33:15;3;1;
82886;PMS5003;72660;51.258;-2.200;2024-03-22T09:35:41;4;3;
82886;PMS5003;72660;51.258;-2.200;2024-03-22T09:38:06;2;2;
82886;PMS5003;72660;51.258;-2.200;2024-03-22T09:40:31;1;1;
82886;PMS5003;72660;51.258;-2.200;2024-03-22T09:42:58;3;1;
82886;PMS5003;72660;51.258;-2.200;2024-03-22T09:45:22;1;1;
82886;PMS5003;72660;51.258;-2.200;2024-03-22T09:47:48;1;1;
82886;PMS5003;72660;51.258;-2.200;2024-03-22T09:50:12;4;1;
82886;PMS5003;72660;51.258;-2.200;2024-03-22T09:52:38;2;1;
82886;PMS5003;72660;51.258;-2.200;2024-03-22T09:55:03;4;2;
82886;PMS5003;72660;51.258;-2.200;2024-03-22T09:57:28;3;1;
82886;PMS5003;72660;51.258;-2.200;2024-03-22T09:59:54;4;2;
82886;PMS5003;72660;51.258;-2.200;2024-03-22T10:02:19;1;1;
82886;PMS5003;72660;51.258;-2.200;2024-03-22T10:04:44;3;1;
82886;PMS5003;72660;51.258;-2.200;2024-03-22T10:07:09;2;2;
82886;PMS5003;72660;51.258;-2.200;2024-03-22T10:09:35;6;3;
82886;PMS5003;72660;51.258;-2.200;2024-03-22T10:12:06;5;4;
82886;PMS5003;72660;51.258;-2.200;2024-03-22T10:14:26;4;2;
82886;PMS5003;72660;51.258;-2.200;2024-03-22T10:16:51;4;4;
82886;PMS5003;72660;51.258;-2.200;2024-03-22T10:19:17;3;1;
82886;PMS5003;72660;51.258;-2.200;2024-03-22T10:21:43;3;3;
82886;PMS5003;72660;51.258;-2.200;2024-03-22T10:24:08;6;4;
82886;PMS5003;72660;51.258;-2.200;2024-03-22T10:26:34;4;3;
82886;PMS5003;72660;51.258;-2.200;2024-03-22T10:28:59;5;4;
82886;PMS5003;72660;51.258;-2.200;2024-03-22T10:31:24;2;1;
82886;PMS5003;72660;51.258;-2.200;2024-03-22T10:33:50;4;4;
82886;PMS5003;72660;51.258;-2.200;2024-03-22T10:36:16;8;5;
82886;PMS5003;72660;51.258;-2.200;2024-03-22T10:38:42;6;5;
82886;PMS5003;72660;51.258;-2.200;2024-03-22T10:41:08;8;6;
82886;PMS5003;72660;51.258;-2.200;2024-03-22T10:43:33;4;4;
82886;PMS5003;72660;51.258;-2.200;2024-03-22T10:46:00;5;4;
82886;PMS5003;72660;51.258;-2.200;2024-03-22T10:48:24;6;3;
82886;PMS5003;72660;51.258;-2.200;2024-03-22T10:50:50;8;6;
82886;PMS5003;72660;51.258;-2.200;2024-03-22T10:53:15;5;5;
82886;PMS5003;72660;51.258;-2.200;2024-03-22T10:55:42;7;4;
82886;PMS5003;72660;51.258;-2.200;2024-03-22T10:58:05;7;2;
82886;PMS5003;72660;51.258;-2.200;2024-03-22T11:00:30;9;3;
82886;PMS5003;72660;51.258;-2.200;2024-03-22T11:02:55;8;4;
82886;PMS5003;72660;51.258;-2.200;2024-03-22T11:05:21;8;6;
82886;PMS5003;72660;51.258;-2.200;2024-03-22T11:07:46;5;3;
82886;PMS5003;72660;51.258;-2.200;2024-03-22T11:10:12;6;5;
82886;PMS5003;72660;51.258;-2.200;2024-03-22T11:12:37;2;2;
82886;PMS5003;72660;51.258;-2.200;2024-03-22T11:15:03;4;4;
82886;PMS5003;72660;51.258;-2.200;2024-03-22T11:17:28;5;3;
82886;PMS5003;72660;51.258;-2.200;2024-03-22T11:19:54;6;4;
82886;PMS5003;72660;51.258;-2.200;2024-03-22T11:22:19;4;4;
82886;PMS5003;72660;51.258;-2.200;2024-03-22T11:24:44;5;2;
82886;PMS5003;72660;51.258;-2.200;2024-03-22T11:27:09;2;2;
82886;PMS5003;72660;51.258;-2.200;2024-03-22T11:29:35;4;4;
82886;PMS5003;72660;51.258;-2.200;2024-03-22T11:32:01;6;5;
82886;PMS5003;72660;51.258;-2.200;2024-03-22T11:34:26;6;3;
82886;PMS5003;72660;51.258;-2.200;2024-03-22T11:36:53;4;4;
82886;PMS5003;72660;51.258;-2.200;2024-03-22T11:39:17;7;7;
82886;PMS5003;72660;51.258;-2.200;2024-03-22T11:41:42;5;5;
82886;PMS5003;72660;51.258;-2.200;2024-03-22T11:44:08;5;4;
82886;PMS5003;72660;51.258;-2.200;2024-03-22T11:46:33;5;5;
82886;PMS5003;72660;51.258;-2.200;2024-03-22T11:48:58;3;3;
82886;PMS5003;72660;51.258;-2.200;2024-03-22T11:51:24;5;5;
82886;PMS5003;72660;51.258;-2.200;2024-03-22T11:53:50;4;3;
82886;PMS5003;72660;51.258;-2.200;2024-03-22T11:56:17;7;5;
82886;PMS5003;72660;51.258;-2.200;2024-03-22T11:58:41;6;5;
82886;PMS5003;72660;51.258;-2.200;2024-03-22T12:01:07;7;5;
82886;PMS5003;72660;51.258;-2.200;2024-03-22T12:03:32;5;4;
82886;PMS5003;72660;51.258;-2.200;2024-03-22T12:05:57;8;5;
82886;PMS5003;72660;51.258;-2.200;2024-03-22T12:08:23;12;8;
82886;PMS5003;72660;51.258;-2.200;2024-03-22T12:10:48;5;5;
82886;PMS5003;72660;51.258;-2.200;2024-03-22T12:13:13;9;4;
82886;PMS5003;72660;51.258;-2.200;2024-03-22T12:15:39;6;5;
82886;PMS5003;72660;51.258;-2.200;2024-03-22T12:18:05;7;7;
82886;PMS5003;72660;51.258;-2.200;2024-03-22T12:20:30;8;4;
82886;PMS5003;72660;51.258;-2.200;2024-03-22T12:22:56;6;6;
82886;PMS5003;72660;51.258;-2.200;2024-03-22T12:25:22;8;5;
82886;PMS5003;72660;51.258;-2.200;2024-03-22T12:27:48;12;10;
82886;PMS5003;72660;51.258;-2.200;2024-03-22T12:30:13;9;7;
82886;PMS5003;72660;51.258;-2.200;2024-03-22T12:32:38;8;5;
82886;PMS5003;72660;51.258;-2.200;2024-03-22T12:35:04;7;6;
82886;PMS5003;72660;51.258;-2.200;2024-03-22T12:37:28;8;4;
82886;PMS5003;72660;51.258;-2.200;2024-03-22T12:39:54;9;7;
82886;PMS5003;72660;51.258;-2.200;2024-03-22T12:42:20;10;5;
82886;PMS5003;72660;51.258;-2.200;2024-03-22T12:44:45;5;4;
82886;PMS5003;72660;51.258;-2.200;2024-03-22T12:47:10;4;4;
82886;PMS5003;72660;51.258;-2.200;2024-03-22T12:49:36;5;3;
82886;PMS5003;72660;51.258;-2.200;2024-03-22T12:52:01;4;3;
82886;PMS5003;72660;51.258;-2.200;2024-03-22T12:54:27;5;5;
82886;PMS5003;72660;51.258;-2.200;2024-03-22T12:56:52;8;6;
82886;PMS5003;72660;51.258;-2.200;2024-03-22T12:59:18;9;6;
82886;PMS5003;72660;51.258;-2.200;2024-03-22T13:01:44;6;3;
82886;PMS5003;72660;51.258;-2.200;2024-03-22T13:04:08;6;6;
82886;PMS5003;72660;51.258;-2.200;2024-03-22T13:06:34;4;4;
82886;PMS5003;72660;51.258;-2.200;2024-03-22T13:09:00;8;7;
82886;PMS5003;72660;51.258;-2.200;2024-03-22T13:11:26;5;5;
82886;PMS5003;72660;51.258;-2.200;2024-03-22T13:13:52;11;5;
82886;PMS5003;72660;51.258;-2.200;2024-03-22T13:16:17;8;6;
82886;PMS5003;72660;51.258;-2.200;2024-03-22T13:18:43;10;6;
82886;PMS5003;72660;51.258;-2.200;2024-03-22T13:21:09;8;5;
82886;PMS5003;72660;51.258;-2.200;2024-03-22T13:23:33;12;8;
82886;PMS5003;72660;51.258;-2.200;2024-03-22T13:26:02;6;6;
82886;PMS5003;72660;51.258;-2.200;2024-03-22T13:28:24;8;6;
82886;PMS5003;72660;51.258;-2.200;2024-03-22T13:30:49;4;4;
82886;PMS5003;72660;51.258;-2.200;2024-03-22T13:33:14;4;3;
82886;PMS5003;72660;51.258;-2.200;2024-03-22T13:35:40;8;5;
82886;PMS5003;72660;51.258;-2.200;2024-03-22T13:38:05;6;5;
82886;PMS5003;72660;51.258;-2.200;2024-03-22T13:40:30;5;3;
82886;PMS5003;72660;51.258;-2.200;2024-03-22T13:42:56;5;3;
82886;PMS5003;72660;51.258;-2.200;2024-03-22T13:45:21;3;3;
82886;PMS5003;72660;51.258;-2.200;2024-03-22T13:47:46;11;10;
82886;PMS5003;72660;51.258;-2.200;2024-03-22T13:50:11;6;5;
82886;PMS5003;72660;51.258;-2.200;2024-03-22T13:52:36;6;4;
82886;PMS5003;72660;51.258;-2.200;2024-03-22T13:55:02;10;6;
82886;PMS5003;72660;51.258;-2.200;2024-03-22T13:57:27;4;2;
82886;PMS5003;72660;51.258;-2.200;2024-03-22T13:59:53;4;4;
82886;PMS5003;72660;51.258;-2.200;2024-03-22T14:02:18;6;5;
82886;PMS5003;72660;51.258;-2.200;2024-03-22T14:04:43;1;1;
82886;PMS5003;72660;51.258;-2.200;2024-03-22T14:07:08;5;4;
82886;PMS5003;72660;51.258;-2.200;2024-03-22T14:09:34;3;2;
82886;PMS5003;72660;51.258;-2.200;2024-03-22T14:11:59;6;4;
82886;PMS5003;72660;51.258;-2.200;2024-03-22T14:14:24;3;3;
82886;PMS5003;72660;51.258;-2.200;2024-03-22T14:16:50;4;4;
82886;PMS5003;72660;51.258;-2.200;2024-03-22T14:19:15;5;3;
82886;PMS5003;72660;51.258;-2.200;2024-03-22T14:21:40;4;2;
82886;PMS5003;72660;51.258;-2.200;2024-03-22T14:24:05;5;2;
82886;PMS5003;72660;51.258;-2.200;2024-03-22T14:26:31;5;3;
82886;PMS5003;72660;51.258;-2.200;2024-03-22T14:28:56;3;3;
82886;PMS5003;72660;51.258;-2.200;2024-03-22T14:31:21;4;4;
82886;PMS5003;72660;51.258;-2.200;2024-03-22T14:33:47;1;1;
82886;PMS5003;72660;51.258;-2.200;2024-03-22T14:36:12;5;4;
82886;PMS5003;72660;51.258;-2.200;2024-03-22T14:38:37;7;3;
82886;PMS5003;72660;51.258;-2.200;2024-03-22T14:41:03;4;2;
82886;PMS5003;72660;51.258;-2.200;2024-03-22T14:43:28;1;0;
82886;PMS5003;72660;51.258;-2.200;2024-03-22T14:45:53;3;3;
82886;PMS5003;72660;51.258;-2.200;2024-03-22T14:48:19;3;2;
82886;PMS5003;72660;51.258;-2.200;2024-03-22T14:50:44;6;2;
82886;PMS5003;72660;51.258;-2.200;2024-03-22T14:53:09;0;0;
82886;PMS5003;72660;51.258;-2.200;2024-03-22T14:55:35;3;3;
82886;PMS5003;72660;51.258;-2.200;2024-03-22T14:57:59;2;2;
82886;PMS5003;72660;51.258;-2.200;2024-03-22T15:00:25;3;3;
82886;PMS5003;72660;51.258;-2.200;2024-03-22T15:02:50;6;3;
82886;PMS5003;72660;51.258;-2.200;2024-03-22T15:05:16;3;2;
82886;PMS5003;72660;51.258;-2.200;2024-03-22T15:07:41;3;3;
82886;PMS5003;72660;51.258;-2.200;2024-03-22T15:10:07;1;1;
82886;PMS5003;72660;51.258;-2.200;2024-03-22T15:12:32;4;2;
82886;PMS5003;72660;51.258;-2.200;2024-03-22T15:14:57;5;4;
82886;PMS5003;72660;51.258;-2.200;2024-03-22T15:17:22;2;2;
82886;PMS5003;72660;51.258;-2.200;2024-03-22T15:19:48;4;2;
82886;PMS5003;72660;51.258;-2.200;2024-03-22T15:22:13;1;1;
82886;PMS5003;72660;51.258;-2.200;2024-03-22T15:24:38;3;2;
82886;PMS5003;72660;51.258;-2.200;2024-03-22T15:27:08;6;3;
82886;PMS5003;72660;51.258;-2.200;2024-03-22T15:29:29;1;1;
82886;PMS5003;72660;51.258;-2.200;2024-03-22T15:31:54;2;2;
82886;PMS5003;72660;51.258;-2.200;2024-03-22T15:34:19;0;0;
82886;PMS5003;72660;51.258;-2.200;2024-03-22T15:36:45;2;2;
82886;PMS5003;72660;51.258;-2.200;2024-03-22T15:39:10;2;1;
82886;PMS5003;72660;51.258;-2.200;2024-03-22T15:41:35;7;4;
82886;PMS5003;72660;51.258;-2.200;2024-03-22T15:44:01;4;3;
82886;PMS5003;72660;51.258;-2.200;2024-03-22T15:46:26;2;2;
82886;PMS5003;72660;51.258;-2.200;2024-03-22T15:48:51;1;1;
82886;PMS5003;72660;51.258;-2.200;2024-03-22T15:51:16;3;3;
82886;PMS5003;72660;51.258;-2.200;2024-03-22T15:53:42;3;3;
82886;PMS5003;72660;51.258;-2.200;2024-03-22T15:56:07;2;2;
82886;PMS5003;72660;51.258;-2.200;2024-03-22T15:58:33;2;2;
82886;PMS5003;72660;51.258;-2.200;2024-03-22T16:00:58;3;2;
82886;PMS5003;72660;51.258;-2.200;2024-03-22T16:03:23;4;3;
82886;PMS5003;72660;51.258;-2.200;2024-03-22T16:05:49;1;1;
82886;PMS5003;72660;51.258;-2.200;2024-03-22T16:08:14;6;4;
82886;PMS5003;72660;51.258;-2.200;2024-03-22T16:10:39;2;2;
82886;PMS5003;72660;51.258;-2.200;2024-03-22T16:13:05;4;2;